sensor_id;sensor_type;location;lat;lon;timestamp;P1;durP1;ratioP1;P2;durP2;ratioP2
13421;SDS011;6782;55.904;13.396;2023-07-31T00:01:57;9.50;;;3.63;;
13421;SDS011;6782;55.904;13.396;2023-07-31T00:04:46;9.65;;;3.85;;
13421;SDS011;6782;55.904;13.396;2023-07-31T00:07:34;8.38;;;3.85;;
13421;SDS011;6782;55.904;13.396;2023-07-31T00:10:22;9.75;;;4.10;;
13421;SDS011;6782;55.904;13.396;2023-07-31T00:13:09;8.80;;;3.63;;
13421;SDS011;6782;55.904;13.396;2023-07-31T00:15:56;9.05;;;3.90;;
13421;SDS011;6782;55.904;13.396;2023-07-31T00:18:43;9.55;;;3.60;;
13421;SDS011;6782;55.904;13.396;2023-07-31T00:21:34;7.32;;;3.15;;
13421;SDS011;6782;55.904;13.396;2023-07-31T00:24:21;7.15;;;3.70;;
13421;SDS011;6782;55.904;13.396;2023-07-31T00:27:09;7.78;;;3.55;;
13421;SDS011;6782;55.904;13.396;2023-07-31T00:29:56;8.80;;;3.88;;
13421;SDS011;6782;55.904;13.396;2023-07-31T00:32:44;6.85;;;3.40;;
13421;SDS011;6782;55.904;13.396;2023-07-31T00:35:31;6.18;;;3.33;;
13421;SDS011;6782;55.904;13.396;2023-07-31T00:38:20;8.57;;;3.63;;
13421;SDS011;6782;55.904;13.396;2023-07-31T00:41:07;6.97;;;3.17;;
13421;SDS011;6782;55.904;13.396;2023-07-31T00:43:54;6.95;;;3.40;;
13421;SDS011;6782;55.904;13.396;2023-07-31T00:46:41;8.00;;;3.05;;
13421;SDS011;6782;55.904;13.396;2023-07-31T00:49:29;6.63;;;3.20;;
13421;SDS011;6782;55.904;13.396;2023-07-31T00:52:16;8.73;;;3.00;;
13421;SDS011;6782;55.904;13.396;2023-07-31T00:55:07;9.57;;;3.22;;
13421;SDS011;6782;55.904;13.396;2023-07-31T00:57:55;8.65;;;3.40;;
13421;SDS011;6782;55.904;13.396;2023-07-31T01:00:43;5.10;;;3.08;;
13421;SDS011;6782;55.904;13.396;2023-07-31T01:03:30;5.50;;;3.10;;
13421;SDS011;6782;55.904;13.396;2023-07-31T01:06:18;5.28;;;2.97;;
13421;SDS011;6782;55.904;13.396;2023-07-31T01:09:17;9.68;;;3.08;;
13421;SDS011;6782;55.904;13.396;2023-07-31T01:12:12;4.70;;;2.90;;
13421;SDS011;6782;55.904;13.396;2023-07-31T01:15:02;7.07;;;3.38;;
13421;SDS011;6782;55.904;13.396;2023-07-31T01:17:50;7.68;;;3.38;;
13421;SDS011;6782;55.904;13.396;2023-07-31T01:20:37;8.25;;;3.72;;
13421;SDS011;6782;55.904;13.396;2023-07-31T01:26:55;10.02;;;3.15;;
13421;SDS011;6782;55.904;13.396;2023-07-31T01:29:45;5.80;;;3.10;;
13421;SDS011;6782;55.904;13.396;2023-07-31T01:32:35;6.57;;;3.03;;
13421;SDS011;6782;55.904;13.396;2023-07-31T01:35:26;9.45;;;3.00;;
13421;SDS011;6782;55.904;13.396;2023-07-31T01:38:13;5.57;;;2.80;;
13421;SDS011;6782;55.904;13.396;2023-07-31T01:41:00;8.27;;;3.03;;
13421;SDS011;6782;55.904;13.396;2023-07-31T01:43:49;8.00;;;3.20;;
13421;SDS011;6782;55.904;13.396;2023-07-31T01:46:36;10.63;;;3.10;;
13421;SDS011;6782;55.904;13.396;2023-07-31T01:49:24;9.05;;;2.83;;
13421;SDS011;6782;55.904;13.396;2023-07-31T01:52:11;6.22;;;2.88;;
13421;SDS011;6782;55.904;13.396;2023-07-31T01:54:59;7.65;;;3.03;;
13421;SDS011;6782;55.904;13.396;2023-07-31T01:57:47;12.38;;;3.28;;
13421;SDS011;6782;55.904;13.396;2023-07-31T02:00:36;7.53;;;2.90;;
13421;SDS011;6782;55.904;13.396;2023-07-31T02:03:23;7.85;;;3.60;;
13421;SDS011;6782;55.904;13.396;2023-07-31T02:06:10;8.45;;;2.70;;
13421;SDS011;6782;55.904;13.396;2023-07-31T02:08:57;8.50;;;3.28;;
13421;SDS011;6782;55.904;13.396;2023-07-31T02:11:46;4.25;;;2.60;;
13421;SDS011;6782;55.904;13.396;2023-07-31T02:14:33;7.20;;;3.10;;
13421;SDS011;6782;55.904;13.396;2023-07-31T02:17:22;6.03;;;2.95;;
13421;SDS011;6782;55.904;13.396;2023-07-31T02:20:10;8.57;;;3.03;;
13421;SDS011;6782;55.904;13.396;2023-07-31T02:22:57;11.27;;;3.30;;
13421;SDS011;6782;55.904;13.396;2023-07-31T02:25:45;7.57;;;2.70;;
13421;SDS011;6782;55.904;13.396;2023-07-31T02:28:33;9.07;;;3.00;;
13421;SDS011;6782;55.904;13.396;2023-07-31T02:31:20;10.35;;;3.20;;
13421;SDS011;6782;55.904;13.396;2023-07-31T02:34:10;7.43;;;3.13;;
13421;SDS011;6782;55.904;13.396;2023-07-31T02:36:57;9.57;;;3.20;;
13421;SDS011;6782;55.904;13.396;2023-07-31T02:39:45;10.73;;;3.30;;
13421;SDS011;6782;55.904;13.396;2023-07-31T02:42:33;5.10;;;2.60;;
13421;SDS011;6782;55.904;13.396;2023-07-31T02:45:20;8.13;;;2.70;;
13421;SDS011;6782;55.904;13.396;2023-07-31T02:48:07;7.75;;;2.70;;
13421;SDS011;6782;55.904;13.396;2023-07-31T02:50:56;8.85;;;3.25;;
13421;SDS011;6782;55.904;13.396;2023-07-31T02:53:43;7.35;;;2.58;;
13421;SDS011;6782;55.904;13.396;2023-07-31T02:56:30;8.02;;;2.50;;
13421;SDS011;6782;55.904;13.396;2023-07-31T02:59:17;8.98;;;3.00;;
13421;SDS011;6782;55.904;13.396;2023-07-31T03:02:05;8.55;;;2.55;;
13421;SDS011;6782;55.904;13.396;2023-07-31T03:04:52;7.20;;;2.47;;
13421;SDS011;6782;55.904;13.396;2023-07-31T03:07:41;8.32;;;3.10;;
13421;SDS011;6782;55.904;13.396;2023-07-31T03:10:28;7.20;;;2.50;;
13421;SDS011;6782;55.904;13.396;2023-07-31T03:13:16;5.65;;;2.63;;
13421;SDS011;6782;55.904;13.396;2023-07-31T03:16:03;5.35;;;2.65;;
13421;SDS011;6782;55.904;13.396;2023-07-31T03:18:51;4.97;;;2.35;;
13421;SDS011;6782;55.904;13.396;2023-07-31T03:21:38;6.35;;;2.45;;
13421;SDS011;6782;55.904;13.396;2023-07-31T03:24:28;9.55;;;3.10;;
13421;SDS011;6782;55.904;13.396;2023-07-31T03:27:15;7.43;;;2.90;;
13421;SDS011;6782;55.904;13.396;2023-07-31T03:30:02;8.25;;;2.80;;
13421;SDS011;6782;55.904;13.396;2023-07-31T03:32:50;7.00;;;2.95;;
13421;SDS011;6782;55.904;13.396;2023-07-31T03:35:37;6.22;;;2.65;;
13421;SDS011;6782;55.904;13.396;2023-07-31T03:38:25;5.97;;;2.65;;
13421;SDS011;6782;55.904;13.396;2023-07-31T03:41:13;5.65;;;2.45;;
13421;SDS011;6782;55.904;13.396;2023-07-31T03:44:01;9.02;;;2.78;;
13421;SDS011;6782;55.904;13.396;2023-07-31T03:46:48;5.43;;;2.90;;
13421;SDS011;6782;55.904;13.396;2023-07-31T03:49:35;5.57;;;2.45;;
13421;SDS011;6782;55.904;13.396;2023-07-31T03:52:23;5.93;;;2.53;;
13421;SDS011;6782;55.904;13.396;2023-07-31T03:55:14;4.93;;;2.13;;
13421;SDS011;6782;55.904;13.396;2023-07-31T03:58:02;4.38;;;2.22;;
13421;SDS011;6782;55.904;13.396;2023-07-31T04:00:50;5.70;;;2.17;;
13421;SDS011;6782;55.904;13.396;2023-07-31T04:03:37;4.10;;;2.03;;
13421;SDS011;6782;55.904;13.396;2023-07-31T04:06:24;7.85;;;2.30;;
13421;SDS011;6782;55.904;13.396;2023-07-31T04:09:11;5.90;;;2.22;;
13421;SDS011;6782;55.904;13.396;2023-07-31T04:11:58;8.25;;;2.30;;
13421;SDS011;6782;55.904;13.396;2023-07-31T04:14:47;7.47;;;2.40;;
13421;SDS011;6782;55.904;13.396;2023-07-31T04:17:34;6.05;;;2.25;;
13421;SDS011;6782;55.904;13.396;2023-07-31T04:20:22;8.18;;;2.65;;
13421;SDS011;6782;55.904;13.396;2023-07-31T04:23:09;3.20;;;2.30;;
13421;SDS011;6782;55.904;13.396;2023-07-31T04:25:56;10.85;;;3.03;;
13421;SDS011;6782;55.904;13.396;2023-07-31T04:28:44;7.57;;;2.78;;
13421;SDS011;6782;55.904;13.396;2023-07-31T04:31:33;8.63;;;2.70;;
13421;SDS011;6782;55.904;13.396;2023-07-31T04:34:20;6.85;;;2.55;;
13421;SDS011;6782;55.904;13.396;2023-07-31T04:37:07;7.15;;;2.67;;
13421;SDS011;6782;55.904;13.396;2023-07-31T04:39:54;6.10;;;2.53;;
13421;SDS011;6782;55.904;13.396;2023-07-31T04:42:41;9.77;;;2.78;;
13421;SDS011;6782;55.904;13.396;2023-07-31T04:45:28;9.48;;;2.80;;
13421;SDS011;6782;55.904;13.396;2023-07-31T04:48:17;7.82;;;2.85;;
13421;SDS011;6782;55.904;13.396;2023-07-31T04:51:04;4.57;;;2.53;;
13421;SDS011;6782;55.904;13.396;2023-07-31T04:53:51;9.70;;;2.83;;
13421;SDS011;6782;55.904;13.396;2023-07-31T04:56:39;10.35;;;3.38;;
13421;SDS011;6782;55.904;13.396;2023-07-31T04:59:26;9.30;;;2.90;;
13421;SDS011;6782;55.904;13.396;2023-07-31T05:02:13;11.63;;;3.03;;
13421;SDS011;6782;55.904;13.396;2023-07-31T05:05:02;10.20;;;3.65;;
13421;SDS011;6782;55.904;13.396;2023-07-31T05:07:50;6.95;;;2.75;;
13421;SDS011;6782;55.904;13.396;2023-07-31T05:10:37;11.30;;;3.50;;
13421;SDS011;6782;55.904;13.396;2023-07-31T05:13:24;7.25;;;2.80;;
13421;SDS011;6782;55.904;13.396;2023-07-31T05:16:11;15.20;;;3.65;;
13421;SDS011;6782;55.904;13.396;2023-07-31T05:18:59;9.57;;;3.22;;
13421;SDS011;6782;55.904;13.396;2023-07-31T05:21:48;12.30;;;3.42;;
13421;SDS011;6782;55.904;13.396;2023-07-31T05:24:35;8.23;;;3.53;;
13421;SDS011;6782;55.904;13.396;2023-07-31T05:27:22;10.23;;;3.65;;
13421;SDS011;6782;55.904;13.396;2023-07-31T05:30:10;11.45;;;3.35;;
13421;SDS011;6782;55.904;13.396;2023-07-31T05:32:57;10.40;;;3.60;;
13421;SDS011;6782;55.904;13.396;2023-07-31T05:35:44;10.23;;;3.65;;
13421;SDS011;6782;55.904;13.396;2023-07-31T05:38:34;7.20;;;3.05;;
13421;SDS011;6782;55.904;13.396;2023-07-31T05:41:21;10.35;;;3.80;;
13421;SDS011;6782;55.904;13.396;2023-07-31T05:44:08;11.82;;;3.30;;
13421;SDS011;6782;55.904;13.396;2023-07-31T05:46:56;11.02;;;3.30;;
13421;SDS011;6782;55.904;13.396;2023-07-31T05:49:43;13.38;;;3.60;;
13421;SDS011;6782;55.904;13.396;2023-07-31T05:52:31;9.70;;;3.22;;
13421;SDS011;6782;55.904;13.396;2023-07-31T05:55:20;10.10;;;3.20;;
13421;SDS011;6782;55.904;13.396;2023-07-31T05:58:08;8.75;;;3.17;;
13421;SDS011;6782;55.904;13.396;2023-07-31T06:00:55;10.50;;;3.30;;
13421;SDS011;6782;55.904;13.396;2023-07-31T06:03:42;8.15;;;2.80;;
13421;SDS011;6782;55.904;13.396;2023-07-31T06:06:30;11.05;;;3.38;;
13421;SDS011;6782;55.904;13.396;2023-07-31T06:09:18;9.10;;;2.97;;
13421;SDS011;6782;55.904;13.396;2023-07-31T06:12:07;9.70;;;2.80;;
13421;SDS011;6782;55.904;13.396;2023-07-31T06:14:55;8.70;;;2.88;;
13421;SDS011;6782;55.904;13.396;2023-07-31T06:17:42;8.23;;;2.92;;
13421;SDS011;6782;55.904;13.396;2023-07-31T06:20:29;6.88;;;2.85;;
13421;SDS011;6782;55.904;13.396;2023-07-31T06:23:17;10.80;;;2.63;;
13421;SDS011;6782;55.904;13.396;2023-07-31T06:26:05;7.60;;;2.63;;
13421;SDS011;6782;55.904;13.396;2023-07-31T06:28:53;6.93;;;2.70;;
13421;SDS011;6782;55.904;13.396;2023-07-31T06:31:41;6.13;;;2.53;;
13421;SDS011;6782;55.904;13.396;2023-07-31T06:34:28;9.48;;;2.83;;
13421;SDS011;6782;55.904;13.396;2023-07-31T06:37:16;5.22;;;2.40;;
13421;SDS011;6782;55.904;13.396;2023-07-31T06:40:03;5.85;;;2.25;;
13421;SDS011;6782;55.904;13.396;2023-07-31T06:42:53;5.82;;;2.58;;
13421;SDS011;6782;55.904;13.396;2023-07-31T06:45:42;5.72;;;2.30;;
13421;SDS011;6782;55.904;13.396;2023-07-31T06:48:29;6.80;;;2.60;;
13421;SDS011;6782;55.904;13.396;2023-07-31T06:51:17;6.97;;;2.17;;
13421;SDS011;6782;55.904;13.396;2023-07-31T06:54:05;6.97;;;2.50;;
13421;SDS011;6782;55.904;13.396;2023-07-31T06:56:52;7.53;;;1.98;;
13421;SDS011;6782;55.904;13.396;2023-07-31T06:59:39;4.18;;;2.50;;
13421;SDS011;6782;55.904;13.396;2023-07-31T07:02:28;5.70;;;1.95;;
13421;SDS011;6782;55.904;13.396;2023-07-31T07:05:17;4.90;;;1.80;;
13421;SDS011;6782;55.904;13.396;2023-07-31T07:08:04;3.63;;;1.90;;
13421;SDS011;6782;55.904;13.396;2023-07-31T07:10:51;3.47;;;1.90;;
13421;SDS011;6782;55.904;13.396;2023-07-31T07:13:39;4.57;;;2.33;;
13421;SDS011;6782;55.904;13.396;2023-07-31T07:16:28;4.78;;;2.00;;
13421;SDS011;6782;55.904;13.396;2023-07-31T07:19:17;5.70;;;2.00;;
13421;SDS011;6782;55.904;13.396;2023-07-31T07:22:04;5.53;;;2.17;;
13421;SDS011;6782;55.904;13.396;2023-07-31T07:24:52;5.43;;;2.05;;
13421;SDS011;6782;55.904;13.396;2023-07-31T07:27:39;6.55;;;2.10;;
13421;SDS011;6782;55.904;13.396;2023-07-31T07:30:26;6.88;;;1.90;;
13421;SDS011;6782;55.904;13.396;2023-07-31T07:33:13;2.55;;;1.65;;
13421;SDS011;6782;55.904;13.396;2023-07-31T07:36:02;6.07;;;2.13;;
13421;SDS011;6782;55.904;13.396;2023-07-31T07:38:51;5.68;;;2.03;;
13421;SDS011;6782;55.904;13.396;2023-07-31T07:41:38;4.50;;;1.80;;
13421;SDS011;6782;55.904;13.396;2023-07-31T07:44:25;4.00;;;1.90;;
13421;SDS011;6782;55.904;13.396;2023-07-31T07:47:13;5.00;;;1.85;;
13421;SDS011;6782;55.904;13.396;2023-07-31T07:50:00;4.43;;;1.65;;
13421;SDS011;6782;55.904;13.396;2023-07-31T07:52:49;4.82;;;1.65;;
13421;SDS011;6782;55.904;13.396;2023-07-31T07:55:37;4.18;;;1.73;;
13421;SDS011;6782;55.904;13.396;2023-07-31T07:58:24;3.60;;;1.80;;
13421;SDS011;6782;55.904;13.396;2023-07-31T08:01:11;3.72;;;1.70;;
13421;SDS011;6782;55.904;13.396;2023-07-31T08:03:58;5.70;;;1.70;;
13421;SDS011;6782;55.904;13.396;2023-07-31T08:06:46;5.22;;;2.08;;
13421;SDS011;6782;55.904;13.396;2023-07-31T08:09:35;3.05;;;1.80;;
13421;SDS011;6782;55.904;13.396;2023-07-31T08:12:22;4.35;;;1.70;;
13421;SDS011;6782;55.904;13.396;2023-07-31T08:15:10;5.80;;;1.98;;
13421;SDS011;6782;55.904;13.396;2023-07-31T08:17:57;3.15;;;1.95;;
13421;SDS011;6782;55.904;13.396;2023-07-31T08:20:47;6.85;;;2.10;;
13421;SDS011;6782;55.904;13.396;2023-07-31T08:23:34;7.05;;;2.30;;
13421;SDS011;6782;55.904;13.396;2023-07-31T08:26:23;4.85;;;2.10;;
13421;SDS011;6782;55.904;13.396;2023-07-31T08:29:10;6.05;;;2.03;;
13421;SDS011;6782;55.904;13.396;2023-07-31T08:31:58;5.68;;;2.40;;
13421;SDS011;6782;55.904;13.396;2023-07-31T08:34:45;6.47;;;2.10;;
13421;SDS011;6782;55.904;13.396;2023-07-31T08:37:33;4.53;;;2.08;;
13421;SDS011;6782;55.904;13.396;2023-07-31T08:40:20;7.50;;;3.03;;
13421;SDS011;6782;55.904;13.396;2023-07-31T08:43:09;6.30;;;2.28;;
13421;SDS011;6782;55.904;13.396;2023-07-31T08:45:57;8.73;;;2.53;;
13421;SDS011;6782;55.904;13.396;2023-07-31T08:48:44;7.05;;;2.67;;
13421;SDS011;6782;55.904;13.396;2023-07-31T08:51:33;8.23;;;2.72;;
13421;SDS011;6782;55.904;13.396;2023-07-31T08:54:21;4.80;;;2.33;;
13421;SDS011;6782;55.904;13.396;2023-07-31T08:57:08;4.40;;;2.28;;
13421;SDS011;6782;55.904;13.396;2023-07-31T08:59:59;4.47;;;2.30;;
13421;SDS011;6782;55.904;13.396;2023-07-31T09:02:48;5.28;;;2.00;;
13421;SDS011;6782;55.904;13.396;2023-07-31T09:05:42;5.13;;;2.33;;
13421;SDS011;6782;55.904;13.396;2023-07-31T09:08:30;5.53;;;2.25;;
13421;SDS011;6782;55.904;13.396;2023-07-31T09:11:18;5.00;;;2.20;;
13421;SDS011;6782;55.904;13.396;2023-07-31T09:14:07;6.57;;;2.40;;
13421;SDS011;6782;55.904;13.396;2023-07-31T09:16:57;5.63;;;2.33;;
13421;SDS011;6782;55.904;13.396;2023-07-31T09:19:45;6.25;;;2.30;;
13421;SDS011;6782;55.904;13.396;2023-07-31T09:22:34;3.75;;;2.10;;
13421;SDS011;6782;55.904;13.396;2023-07-31T09:25:22;4.60;;;2.30;;
13421;SDS011;6782;55.904;13.396;2023-07-31T09:28:10;3.95;;;1.95;;
13421;SDS011;6782;55.904;13.396;2023-07-31T09:30:57;4.50;;;2.10;;
13421;SDS011;6782;55.904;13.396;2023-07-31T09:33:55;4.13;;;2.13;;
13421;SDS011;6782;55.904;13.396;2023-07-31T09:36:43;3.47;;;1.70;;
13421;SDS011;6782;55.904;13.396;2023-07-31T09:39:31;3.20;;;2.08;;
13421;SDS011;6782;55.904;13.396;2023-07-31T09:42:24;3.17;;;2.10;;
13421;SDS011;6782;55.904;13.396;2023-07-31T09:45:14;4.40;;;2.28;;
13421;SDS011;6782;55.904;13.396;2023-07-31T09:48:01;6.45;;;2.30;;
13421;SDS011;6782;55.904;13.396;2023-07-31T09:50:51;5.55;;;2.35;;
13421;SDS011;6782;55.904;13.396;2023-07-31T09:53:40;4.25;;;2.17;;
13421;SDS011;6782;55.904;13.396;2023-07-31T09:56:27;3.15;;;1.80;;
13421;SDS011;6782;55.904;13.396;2023-07-31T09:59:16;5.55;;;2.00;;
13421;SDS011;6782;55.904;13.396;2023-07-31T10:02:05;2.50;;;1.90;;
13421;SDS011;6782;55.904;13.396;2023-07-31T10:05:02;2.92;;;1.60;;
13421;SDS011;6782;55.904;13.396;2023-07-31T10:07:54;1.83;;;1.50;;
13421;SDS011;6782;55.904;13.396;2023-07-31T10:10:42;3.20;;;1.60;;
13421;SDS011;6782;55.904;13.396;2023-07-31T10:13:30;1.40;;;1.23;;
13421;SDS011;6782;55.904;13.396;2023-07-31T10:16:18;5.25;;;1.40;;
13421;SDS011;6782;55.904;13.396;2023-07-31T10:19:06;2.22;;;1.38;;
13421;SDS011;6782;55.904;13.396;2023-07-31T10:21:55;3.25;;;1.20;;
13421;SDS011;6782;55.904;13.396;2023-07-31T10:24:46;2.72;;;1.10;;
13421;SDS011;6782;55.904;13.396;2023-07-31T10:27:35;6.90;;;1.40;;
13421;SDS011;6782;55.904;13.396;2023-07-31T10:30:25;1.50;;;1.05;;
13421;SDS011;6782;55.904;13.396;2023-07-31T10:33:14;1.63;;;1.08;;
13421;SDS011;6782;55.904;13.396;2023-07-31T10:36:12;1.08;;;0.98;;
13421;SDS011;6782;55.904;13.396;2023-07-31T10:38:59;2.45;;;0.98;;
13421;SDS011;6782;55.904;13.396;2023-07-31T10:41:51;1.10;;;1.00;;
13421;SDS011;6782;55.904;13.396;2023-07-31T10:44:43;3.67;;;1.15;;
13421;SDS011;6782;55.904;13.396;2023-07-31T10:47:31;3.40;;;1.38;;
13421;SDS011;6782;55.904;13.396;2023-07-31T10:50:18;4.25;;;1.60;;
13421;SDS011;6782;55.904;13.396;2023-07-31T10:53:09;5.53;;;1.77;;
13421;SDS011;6782;55.904;13.396;2023-07-31T10:56:09;4.15;;;1.80;;
13421;SDS011;6782;55.904;13.396;2023-07-31T10:59:02;4.40;;;1.70;;
13421;SDS011;6782;55.904;13.396;2023-07-31T11:01:49;5.38;;;1.80;;
13421;SDS011;6782;55.904;13.396;2023-07-31T11:04:37;3.45;;;1.80;;
13421;SDS011;6782;55.904;13.396;2023-07-31T11:07:40;3.45;;;1.80;;
13421;SDS011;6782;55.904;13.396;2023-07-31T11:10:33;5.68;;;1.98;;
13421;SDS011;6782;55.904;13.396;2023-07-31T11:13:20;4.30;;;2.13;;
13421;SDS011;6782;55.904;13.396;2023-07-31T11:16:10;2.92;;;1.52;;
13421;SDS011;6782;55.904;13.396;2023-07-31T11:18:58;3.85;;;2.00;;
13421;SDS011;6782;55.904;13.396;2023-07-31T11:21:46;4.22;;;2.00;;
13421;SDS011;6782;55.904;13.396;2023-07-31T11:24:34;4.65;;;2.10;;
13421;SDS011;6782;55.904;13.396;2023-07-31T11:27:22;4.53;;;2.10;;
13421;SDS011;6782;55.904;13.396;2023-07-31T11:30:10;4.00;;;1.80;;
13421;SDS011;6782;55.904;13.396;2023-07-31T11:33:00;5.68;;;2.28;;
13421;SDS011;6782;55.904;13.396;2023-07-31T11:35:49;2.60;;;1.70;;
13421;SDS011;6782;55.904;13.396;2023-07-31T11:38:37;4.25;;;2.03;;
13421;SDS011;6782;55.904;13.396;2023-07-31T11:41:24;2.95;;;1.80;;
13421;SDS011;6782;55.904;13.396;2023-07-31T11:44:11;5.57;;;2.22;;
13421;SDS011;6782;55.904;13.396;2023-07-31T11:46:58;4.57;;;1.92;;
13421;SDS011;6782;55.904;13.396;2023-07-31T11:49:50;2.88;;;2.10;;
13421;SDS011;6782;55.904;13.396;2023-07-31T11:52:40;3.95;;;1.90;;
13421;SDS011;6782;55.904;13.396;2023-07-31T11:55:31;3.22;;;2.08;;
13421;SDS011;6782;55.904;13.396;2023-07-31T11:58:18;2.85;;;2.30;;
13421;SDS011;6782;55.904;13.396;2023-07-31T12:01:06;5.68;;;2.90;;
13421;SDS011;6782;55.904;13.396;2023-07-31T12:03:54;3.60;;;2.70;;
13421;SDS011;6782;55.904;13.396;2023-07-31T12:06:45;4.57;;;2.97;;
13421;SDS011;6782;55.904;13.396;2023-07-31T12:09:32;3.00;;;2.65;;
13421;SDS011;6782;55.904;13.396;2023-07-31T12:12:19;3.40;;;2.65;;
13421;SDS011;6782;55.904;13.396;2023-07-31T12:15:13;3.95;;;2.95;;
13421;SDS011;6782;55.904;13.396;2023-07-31T12:18:05;3.83;;;2.50;;
13421;SDS011;6782;55.904;13.396;2023-07-31T12:20:55;5.03;;;2.97;;
13421;SDS011;6782;55.904;13.396;2023-07-31T12:23:44;8.05;;;2.80;;
13421;SDS011;6782;55.904;13.396;2023-07-31T12:26:33;5.60;;;2.33;;
13421;SDS011;6782;55.904;13.396;2023-07-31T12:29:21;5.55;;;2.70;;
13421;SDS011;6782;55.904;13.396;2023-07-31T12:32:21;4.53;;;2.53;;
13421;SDS011;6782;55.904;13.396;2023-07-31T12:35:09;4.90;;;2.13;;
13421;SDS011;6782;55.904;13.396;2023-07-31T12:37:56;3.75;;;1.98;;
13421;SDS011;6782;55.904;13.396;2023-07-31T12:40:49;2.00;;;1.80;;
13421;SDS011;6782;55.904;13.396;2023-07-31T12:43:37;3.10;;;1.65;;
13421;SDS011;6782;55.904;13.396;2023-07-31T12:46:26;2.55;;;2.00;;
13421;SDS011;6782;55.904;13.396;2023-07-31T12:49:13;2.92;;;1.92;;
13421;SDS011;6782;55.904;13.396;2023-07-31T12:52:00;3.45;;;2.13;;
13421;SDS011;6782;55.904;13.396;2023-07-31T12:54:48;3.10;;;1.95;;
13421;SDS011;6782;55.904;13.396;2023-07-31T12:57:37;4.90;;;2.08;;
13421;SDS011;6782;55.904;13.396;2023-07-31T13:00:24;2.35;;;1.88;;
13421;SDS011;6782;55.904;13.396;2023-07-31T13:03:12;3.08;;;2.03;;
13421;SDS011;6782;55.904;13.396;2023-07-31T13:05:59;5.03;;;2.30;;
13421;SDS011;6782;55.904;13.396;2023-07-31T13:08:46;4.45;;;2.30;;
13421;SDS011;6782;55.904;13.396;2023-07-31T13:11:36;3.67;;;2.42;;
13421;SDS011;6782;55.904;13.396;2023-07-31T13:14:26;3.25;;;1.90;;
13421;SDS011;6782;55.904;13.396;2023-07-31T13:17:14;3.72;;;2.22;;
13421;SDS011;6782;55.904;13.396;2023-07-31T13:20:01;3.75;;;2.00;;
13421;SDS011;6782;55.904;13.396;2023-07-31T13:22:50;5.30;;;2.20;;
13421;SDS011;6782;55.904;13.396;2023-07-31T13:25:37;4.45;;;2.00;;
13421;SDS011;6782;55.904;13.396;2023-07-31T13:28:24;3.40;;;2.30;;
13421;SDS011;6782;55.904;13.396;2023-07-31T13:31:14;3.83;;;2.42;;
13421;SDS011;6782;55.904;13.396;2023-07-31T13:34:01;3.97;;;2.30;;
13421;SDS011;6782;55.904;13.396;2023-07-31T13:36:49;2.88;;;2.08;;
13421;SDS011;6782;55.904;13.396;2023-07-31T13:39:37;4.68;;;2.20;;
13421;SDS011;6782;55.904;13.396;2023-07-31T13:42:24;3.88;;;2.25;;
13421;SDS011;6782;55.904;13.396;2023-07-31T13:45:11;3.05;;;2.17;;
13421;SDS011;6782;55.904;13.396;2023-07-31T13:48:00;2.47;;;2.08;;
13421;SDS011;6782;55.904;13.396;2023-07-31T13:50:47;3.97;;;2.20;;
13421;SDS011;6782;55.904;13.396;2023-07-31T13:53:35;2.97;;;2.00;;
13421;SDS011;6782;55.904;13.396;2023-07-31T13:56:22;4.20;;;2.35;;
13421;SDS011;6782;55.904;13.396;2023-07-31T13:59:10;3.15;;;2.40;;
13421;SDS011;6782;55.904;13.396;2023-07-31T14:01:57;2.60;;;2.25;;
13421;SDS011;6782;55.904;13.396;2023-07-31T14:04:46;2.55;;;2.25;;
13421;SDS011;6782;55.904;13.396;2023-07-31T14:07:33;2.65;;;1.92;;
13421;SDS011;6782;55.904;13.396;2023-07-31T14:10:21;3.35;;;2.20;;
13421;SDS011;6782;55.904;13.396;2023-07-31T14:13:08;5.18;;;2.38;;
13421;SDS011;6782;55.904;13.396;2023-07-31T14:15:55;2.30;;;2.10;;
13421;SDS011;6782;55.904;13.396;2023-07-31T14:18:42;3.03;;;2.38;;
13421;SDS011;6782;55.904;13.396;2023-07-31T14:21:32;4.30;;;1.77;;
13421;SDS011;6782;55.904;13.396;2023-07-31T14:24:19;2.47;;;1.70;;
13421;SDS011;6782;55.904;13.396;2023-07-31T14:27:06;2.30;;;1.50;;
13421;SDS011;6782;55.904;13.396;2023-07-31T14:29:54;4.40;;;1.75;;
13421;SDS011;6782;55.904;13.396;2023-07-31T14:32:41;3.17;;;1.70;;
13421;SDS011;6782;55.904;13.396;2023-07-31T14:35:28;4.03;;;1.67;;
13421;SDS011;6782;55.904;13.396;2023-07-31T14:38:17;3.90;;;1.45;;
13421;SDS011;6782;55.904;13.396;2023-07-31T14:41:05;3.33;;;1.80;;
13421;SDS011;6782;55.904;13.396;2023-07-31T14:43:52;2.28;;;1.55;;
13421;SDS011;6782;55.904;13.396;2023-07-31T14:46:40;1.73;;;1.63;;
13421;SDS011;6782;55.904;13.396;2023-07-31T14:49:27;4.57;;;1.60;;
13421;SDS011;6782;55.904;13.396;2023-07-31T14:52:15;2.78;;;1.88;;
13421;SDS011;6782;55.904;13.396;2023-07-31T14:55:04;3.45;;;1.65;;
13421;SDS011;6782;55.904;13.396;2023-07-31T14:57:52;2.45;;;1.77;;
13421;SDS011;6782;55.904;13.396;2023-07-31T15:00:39;4.10;;;1.60;;
13421;SDS011;6782;55.904;13.396;2023-07-31T15:03:26;2.97;;;1.60;;
13421;SDS011;6782;55.904;13.396;2023-07-31T15:06:14;3.47;;;1.70;;
13421;SDS011;6782;55.904;13.396;2023-07-31T15:09:01;2.88;;;1.65;;
13421;SDS011;6782;55.904;13.396;2023-07-31T15:11:49;4.15;;;1.52;;
13421;SDS011;6782;55.904;13.396;2023-07-31T15:14:37;2.13;;;1.65;;
13421;SDS011;6782;55.904;13.396;2023-07-31T15:17:24;3.95;;;1.75;;
13421;SDS011;6782;55.904;13.396;2023-07-31T15:20:12;2.50;;;1.55;;
13421;SDS011;6782;55.904;13.396;2023-07-31T15:23:00;2.95;;;1.52;;
13421;SDS011;6782;55.904;13.396;2023-07-31T15:25:48;2.67;;;1.40;;
13421;SDS011;6782;55.904;13.396;2023-07-31T15:28:37;2.70;;;1.70;;
13421;SDS011;6782;55.904;13.396;2023-07-31T15:31:24;3.78;;;1.17;;
13421;SDS011;6782;55.904;13.396;2023-07-31T15:34:11;1.92;;;1.30;;
13421;SDS011;6782;55.904;13.396;2023-07-31T15:36:59;2.13;;;1.30;;
13421;SDS011;6782;55.904;13.396;2023-07-31T15:39:46;1.48;;;1.38;;
13421;SDS011;6782;55.904;13.396;2023-07-31T15:42:34;2.85;;;1.20;;
13421;SDS011;6782;55.904;13.396;2023-07-31T15:45:26;1.70;;;1.35;;
13421;SDS011;6782;55.904;13.396;2023-07-31T15:48:14;1.42;;;1.27;;
13421;SDS011;6782;55.904;13.396;2023-07-31T15:51:01;2.65;;;1.50;;
13421;SDS011;6782;55.904;13.396;2023-07-31T15:53:52;1.95;;;1.65;;
13421;SDS011;6782;55.904;13.396;2023-07-31T15:56:40;1.80;;;1.70;;
13421;SDS011;6782;55.904;13.396;2023-07-31T15:59:27;3.13;;;1.70;;
13421;SDS011;6782;55.904;13.396;2023-07-31T16:02:15;2.95;;;1.85;;
13421;SDS011;6782;55.904;13.396;2023-07-31T16:05:03;3.35;;;1.80;;
13421;SDS011;6782;55.904;13.396;2023-07-31T16:07:51;2.30;;;1.70;;
13421;SDS011;6782;55.904;13.396;2023-07-31T16:10:38;4.10;;;1.92;;
13421;SDS011;6782;55.904;13.396;2023-07-31T16:13:26;3.38;;;2.33;;
13421;SDS011;6782;55.904;13.396;2023-07-31T16:16:13;3.40;;;2.28;;
13421;SDS011;6782;55.904;13.396;2023-07-31T16:19:02;3.78;;;2.22;;
13421;SDS011;6782;55.904;13.396;2023-07-31T16:21:50;3.80;;;2.50;;
13421;SDS011;6782;55.904;13.396;2023-07-31T16:24:37;3.47;;;1.88;;
13421;SDS011;6782;55.904;13.396;2023-07-31T16:27:24;4.10;;;1.83;;
13421;SDS011;6782;55.904;13.396;2023-07-31T16:30:12;2.97;;;1.90;;
13421;SDS011;6782;55.904;13.396;2023-07-31T16:32:59;2.42;;;1.85;;
13421;SDS011;6782;55.904;13.396;2023-07-31T16:35:48;3.53;;;1.80;;
13421;SDS011;6782;55.904;13.396;2023-07-31T16:38:36;3.45;;;1.85;;
13421;SDS011;6782;55.904;13.396;2023-07-31T16:41:23;2.28;;;1.80;;
13421;SDS011;6782;55.904;13.396;2023-07-31T16:44:11;2.72;;;2.03;;
13421;SDS011;6782;55.904;13.396;2023-07-31T16:47:00;2.72;;;1.70;;
13421;SDS011;6782;55.904;13.396;2023-07-31T16:49:48;2.35;;;1.60;;
13421;SDS011;6782;55.904;13.396;2023-07-31T16:52:38;4.07;;;1.48;;
13421;SDS011;6782;55.904;13.396;2023-07-31T16:55:26;3.90;;;1.50;;
13421;SDS011;6782;55.904;13.396;2023-07-31T16:58:14;2.60;;;1.40;;